KINK

Winkler County Airport

Wink, Texas, USA
METAR KINK 191653Z AUTO 34008KT 10SM CLR 11/M04 A3038 RMK AO2 SLP269 T01111044
Observed Flight Rules
Jan-19 @ 16:53 UTC (43 minutes ago) Visual Flight Rules
Wind Visibility Clouds
340° at 8 knots 10 miles
  • Clear skies
Temperatures Readings
Current 11°C / 52°F
Dewpoint -4°C / 25°F
Humidity 35%
Altimeter 30.38" Hg
Pressure 1026.9 hPa
Elevation 855
METAR KINK 191653Z AUTO 34008KT 10SM CLR 11/M04 A3038 RMK AO2 SLP269 T01111044
Observed Flight Rules
Jan-19 @ 16:53 UTC
(43 minutes ago)
VFR
Wind Visibility
340° at 8 knots 10 miles
Clouds
  • Clear skies
Temperature Dewpoint
11°C / 52°F -4°C / 25°F
Humidity Altimeter Pressure
35% 30.38" Hg 1026.9 hPa